sensor_id;sensor_type;location;lat;lon;timestamp;P1;durP1;ratioP1;P2;durP2;ratioP2
20908;SDS011;10614;53.198;6.570;2022-12-10T00:00:47;21.38;;;8.80;;
20908;SDS011;10614;53.198;6.570;2022-12-10T00:02:48;22.88;;;10.05;;
20908;SDS011;10614;53.198;6.570;2022-12-10T00:04:50;26.48;;;10.55;;
20908;SDS011;10614;53.198;6.570;2022-12-10T00:06:51;27.63;;;10.35;;
20908;SDS011;10614;53.198;6.570;2022-12-10T00:08:53;27.85;;;10.82;;
20908;SDS011;10614;53.198;6.570;2022-12-10T00:10:55;22.48;;;9.80;;
20908;SDS011;10614;53.198;6.570;2022-12-10T00:12:57;27.25;;;10.75;;
20908;SDS011;10614;53.198;6.570;2022-12-10T00:15:00;26.92;;;10.90;;
20908;SDS011;10614;53.198;6.570;2022-12-10T00:17:01;25.88;;;9.65;;
20908;SDS011;10614;53.198;6.570;2022-12-10T00:19:03;24.92;;;9.82;;
20908;SDS011;10614;53.198;6.570;2022-12-10T00:21:06;31.05;;;10.20;;
20908;SDS011;10614;53.198;6.570;2022-12-10T00:23:08;28.00;;;9.98;;
20908;SDS011;10614;53.198;6.570;2022-12-10T00:25:10;25.92;;;10.25;;
20908;SDS011;10614;53.198;6.570;2022-12-10T00:27:12;27.92;;;10.52;;
20908;SDS011;10614;53.198;6.570;2022-12-10T00:29:14;25.33;;;10.43;;
20908;SDS011;10614;53.198;6.570;2022-12-10T00:31:18;26.50;;;9.65;;
20908;SDS011;10614;53.198;6.570;2022-12-10T00:33:21;25.27;;;10.45;;
20908;SDS011;10614;53.198;6.570;2022-12-10T00:35:22;30.45;;;11.50;;
20908;SDS011;10614;53.198;6.570;2022-12-10T00:37:24;34.92;;;12.57;;
20908;SDS011;10614;53.198;6.570;2022-12-10T00:39:26;36.40;;;13.23;;
20908;SDS011;10614;53.198;6.570;2022-12-10T00:41:29;29.30;;;11.02;;
20908;SDS011;10614;53.198;6.570;2022-12-10T00:43:31;29.98;;;11.25;;
20908;SDS011;10614;53.198;6.570;2022-12-10T00:45:32;27.08;;;10.48;;
20908;SDS011;10614;53.198;6.570;2022-12-10T00:47:35;27.42;;;10.88;;
20908;SDS011;10614;53.198;6.570;2022-12-10T00:49:37;28.77;;;11.32;;
20908;SDS011;10614;53.198;6.570;2022-12-10T00:51:39;30.35;;;11.27;;
20908;SDS011;10614;53.198;6.570;2022-12-10T00:53:41;27.52;;;11.50;;
20908;SDS011;10614;53.198;6.570;2022-12-10T00:55:43;27.42;;;11.90;;
20908;SDS011;10614;53.198;6.570;2022-12-10T00:57:45;27.95;;;11.60;;
20908;SDS011;10614;53.198;6.570;2022-12-10T00:59:47;25.02;;;10.00;;
20908;SDS011;10614;53.198;6.570;2022-12-10T01:01:48;22.77;;;9.88;;
20908;SDS011;10614;53.198;6.570;2022-12-10T01:03:53;31.50;;;12.70;;
20908;SDS011;10614;53.198;6.570;2022-12-10T01:06:07;24.85;;;11.10;;
20908;SDS011;10614;53.198;6.570;2022-12-10T01:08:09;35.53;;;12.88;;
20908;SDS011;10614;53.198;6.570;2022-12-10T01:10:12;32.47;;;12.13;;
20908;SDS011;10614;53.198;6.570;2022-12-10T01:12:13;29.15;;;11.20;;
20908;SDS011;10614;53.198;6.570;2022-12-10T01:14:16;30.27;;;12.05;;
20908;SDS011;10614;53.198;6.570;2022-12-10T01:16:20;30.63;;;11.68;;
20908;SDS011;10614;53.198;6.570;2022-12-10T01:18:22;33.63;;;11.98;;
20908;SDS011;10614;53.198;6.570;2022-12-10T01:20:25;32.92;;;12.98;;
20908;SDS011;10614;53.198;6.570;2022-12-10T01:22:27;30.13;;;12.48;;
20908;SDS011;10614;53.198;6.570;2022-12-10T01:24:29;35.10;;;13.63;;
20908;SDS011;10614;53.198;6.570;2022-12-10T01:26:32;27.75;;;11.32;;
20908;SDS011;10614;53.198;6.570;2022-12-10T01:28:35;31.55;;;12.15;;
20908;SDS011;10614;53.198;6.570;2022-12-10T01:30:38;40.05;;;13.93;;
20908;SDS011;10614;53.198;6.570;2022-12-10T01:32:40;30.95;;;11.63;;
20908;SDS011;10614;53.198;6.570;2022-12-10T01:34:41;38.42;;;12.77;;
20908;SDS011;10614;53.198;6.570;2022-12-10T01:36:45;31.95;;;12.15;;
20908;SDS011;10614;53.198;6.570;2022-12-10T01:38:50;31.48;;;12.75;;
20908;SDS011;10614;53.198;6.570;2022-12-10T01:40:53;29.83;;;11.65;;
20908;SDS011;10614;53.198;6.570;2022-12-10T01:42:54;30.85;;;12.18;;
20908;SDS011;10614;53.198;6.570;2022-12-10T01:47:15;34.55;;;13.07;;
20908;SDS011;10614;53.198;6.570;2022-12-10T01:49:17;28.95;;;10.98;;
20908;SDS011;10614;53.198;6.570;2022-12-10T01:51:21;38.33;;;13.88;;
20908;SDS011;10614;53.198;6.570;2022-12-10T01:53:25;35.00;;;13.45;;
20908;SDS011;10614;53.198;6.570;2022-12-10T01:57:53;28.15;;;11.63;;
20908;SDS011;10614;53.198;6.570;2022-12-10T01:59:56;28.73;;;11.38;;
20908;SDS011;10614;53.198;6.570;2022-12-10T02:02:01;33.30;;;12.63;;
20908;SDS011;10614;53.198;6.570;2022-12-10T02:04:11;34.75;;;12.82;;
20908;SDS011;10614;53.198;6.570;2022-12-10T02:06:25;37.63;;;12.50;;
20908;SDS011;10614;53.198;6.570;2022-12-10T02:08:37;43.17;;;16.48;;
20908;SDS011;10614;53.198;6.570;2022-12-10T02:10:44;31.10;;;12.88;;
20908;SDS011;10614;53.198;6.570;2022-12-10T02:12:57;37.80;;;13.20;;
20908;SDS011;10614;53.198;6.570;2022-12-10T02:15:06;41.90;;;15.38;;
20908;SDS011;10614;53.198;6.570;2022-12-10T02:17:14;34.95;;;14.15;;
20908;SDS011;10614;53.198;6.570;2022-12-10T02:19:21;28.05;;;10.95;;
20908;SDS011;10614;53.198;6.570;2022-12-10T02:21:34;32.70;;;11.63;;
20908;SDS011;10614;53.198;6.570;2022-12-10T02:23:41;30.75;;;11.65;;
20908;SDS011;10614;53.198;6.570;2022-12-10T02:25:48;42.35;;;14.52;;
20908;SDS011;10614;53.198;6.570;2022-12-10T02:27:57;31.50;;;13.13;;
20908;SDS011;10614;53.198;6.570;2022-12-10T02:30:06;30.75;;;12.50;;
20908;SDS011;10614;53.198;6.570;2022-12-10T02:32:08;27.83;;;10.65;;
20908;SDS011;10614;53.198;6.570;2022-12-10T02:34:14;38.05;;;13.23;;
20908;SDS011;10614;53.198;6.570;2022-12-10T02:36:18;35.58;;;14.15;;
20908;SDS011;10614;53.198;6.570;2022-12-10T02:38:23;38.20;;;14.07;;
20908;SDS011;10614;53.198;6.570;2022-12-10T02:40:28;33.17;;;12.57;;
20908;SDS011;10614;53.198;6.570;2022-12-10T02:42:34;33.42;;;14.65;;
20908;SDS011;10614;53.198;6.570;2022-12-10T02:44:39;39.70;;;13.45;;
20908;SDS011;10614;53.198;6.570;2022-12-10T02:46:45;37.33;;;13.55;;
20908;SDS011;10614;53.198;6.570;2022-12-10T02:48:50;34.55;;;12.57;;
20908;SDS011;10614;53.198;6.570;2022-12-10T02:50:53;37.13;;;14.48;;
20908;SDS011;10614;53.198;6.570;2022-12-10T02:52:55;33.72;;;13.95;;
20908;SDS011;10614;53.198;6.570;2022-12-10T02:54:57;44.42;;;16.25;;
20908;SDS011;10614;53.198;6.570;2022-12-10T02:56:59;36.40;;;14.35;;
20908;SDS011;10614;53.198;6.570;2022-12-10T02:59:07;39.60;;;14.45;;
20908;SDS011;10614;53.198;6.570;2022-12-10T03:01:17;47.05;;;14.90;;
20908;SDS011;10614;53.198;6.570;2022-12-10T03:03:28;33.75;;;13.32;;
20908;SDS011;10614;53.198;6.570;2022-12-10T03:05:40;40.45;;;13.93;;
20908;SDS011;10614;53.198;6.570;2022-12-10T03:07:47;31.05;;;11.85;;
20908;SDS011;10614;53.198;6.570;2022-12-10T03:09:56;32.38;;;12.63;;
20908;SDS011;10614;53.198;6.570;2022-12-10T03:12:16;29.17;;;12.52;;
20908;SDS011;10614;53.198;6.570;2022-12-10T03:14:24;28.55;;;11.40;;
20908;SDS011;10614;53.198;6.570;2022-12-10T03:16:29;34.63;;;12.73;;
20908;SDS011;10614;53.198;6.570;2022-12-10T03:18:36;37.80;;;15.02;;
20908;SDS011;10614;53.198;6.570;2022-12-10T03:20:39;41.55;;;15.02;;
20908;SDS011;10614;53.198;6.570;2022-12-10T03:22:46;47.28;;;14.82;;
20908;SDS011;10614;53.198;6.570;2022-12-10T03:24:49;33.05;;;13.52;;
20908;SDS011;10614;53.198;6.570;2022-12-10T03:26:53;31.95;;;12.45;;
20908;SDS011;10614;53.198;6.570;2022-12-10T03:28:57;42.88;;;14.40;;
20908;SDS011;10614;53.198;6.570;2022-12-10T03:31:04;43.53;;;14.88;;
20908;SDS011;10614;53.198;6.570;2022-12-10T03:33:07;38.45;;;14.07;;
20908;SDS011;10614;53.198;6.570;2022-12-10T03:35:11;34.15;;;13.52;;
20908;SDS011;10614;53.198;6.570;2022-12-10T03:37:15;35.00;;;12.50;;
20908;SDS011;10614;53.198;6.570;2022-12-10T03:39:16;39.58;;;14.93;;
20908;SDS011;10614;53.198;6.570;2022-12-10T03:41:19;34.97;;;13.80;;
20908;SDS011;10614;53.198;6.570;2022-12-10T03:43:21;32.63;;;13.45;;
20908;SDS011;10614;53.198;6.570;2022-12-10T03:45:23;40.35;;;15.05;;
20908;SDS011;10614;53.198;6.570;2022-12-10T03:47:24;36.38;;;14.82;;
20908;SDS011;10614;53.198;6.570;2022-12-10T03:49:26;33.90;;;13.50;;
20908;SDS011;10614;53.198;6.570;2022-12-10T03:51:29;39.83;;;14.52;;
20908;SDS011;10614;53.198;6.570;2022-12-10T03:53:31;31.17;;;13.15;;
20908;SDS011;10614;53.198;6.570;2022-12-10T03:55:32;38.50;;;14.00;;
20908;SDS011;10614;53.198;6.570;2022-12-10T03:57:34;31.70;;;12.60;;
20908;SDS011;10614;53.198;6.570;2022-12-10T03:59:36;38.25;;;14.52;;
20908;SDS011;10614;53.198;6.570;2022-12-10T04:01:37;35.58;;;13.10;;
20908;SDS011;10614;53.198;6.570;2022-12-10T04:03:40;35.45;;;13.40;;
20908;SDS011;10614;53.198;6.570;2022-12-10T04:05:42;36.95;;;14.38;;
20908;SDS011;10614;53.198;6.570;2022-12-10T04:07:45;35.28;;;14.68;;
20908;SDS011;10614;53.198;6.570;2022-12-10T04:09:47;37.97;;;13.30;;
20908;SDS011;10614;53.198;6.570;2022-12-10T04:11:49;33.65;;;12.90;;
20908;SDS011;10614;53.198;6.570;2022-12-10T04:13:51;37.95;;;14.18;;
20908;SDS011;10614;53.198;6.570;2022-12-10T04:16:10;35.90;;;13.07;;
20908;SDS011;10614;53.198;6.570;2022-12-10T04:18:30;33.30;;;11.65;;
20908;SDS011;10614;53.198;6.570;2022-12-10T04:20:32;31.23;;;12.50;;
20908;SDS011;10614;53.198;6.570;2022-12-10T04:22:52;32.20;;;12.23;;
20908;SDS011;10614;53.198;6.570;2022-12-10T04:25:11;31.45;;;11.88;;
20908;SDS011;10614;53.198;6.570;2022-12-10T04:27:32;36.42;;;13.20;;
20908;SDS011;10614;53.198;6.570;2022-12-10T04:29:35;30.95;;;12.23;;
20908;SDS011;10614;53.198;6.570;2022-12-10T04:31:37;29.52;;;12.63;;
20908;SDS011;10614;53.198;6.570;2022-12-10T04:33:38;38.13;;;13.82;;
20908;SDS011;10614;53.198;6.570;2022-12-10T04:35:40;36.40;;;12.40;;
20908;SDS011;10614;53.198;6.570;2022-12-10T04:37:42;33.15;;;13.18;;
20908;SDS011;10614;53.198;6.570;2022-12-10T04:39:45;34.83;;;12.93;;
20908;SDS011;10614;53.198;6.570;2022-12-10T04:41:48;32.58;;;11.98;;
20908;SDS011;10614;53.198;6.570;2022-12-10T04:43:50;34.65;;;11.25;;
20908;SDS011;10614;53.198;6.570;2022-12-10T04:45:55;35.85;;;13.07;;
20908;SDS011;10614;53.198;6.570;2022-12-10T04:47:57;24.52;;;9.32;;
20908;SDS011;10614;53.198;6.570;2022-12-10T04:49:58;32.92;;;11.65;;
20908;SDS011;10614;53.198;6.570;2022-12-10T04:52:00;35.88;;;12.75;;
20908;SDS011;10614;53.198;6.570;2022-12-10T04:54:02;27.83;;;10.93;;
20908;SDS011;10614;53.198;6.570;2022-12-10T04:56:07;32.95;;;12.45;;
20908;SDS011;10614;53.198;6.570;2022-12-10T04:58:09;29.70;;;9.50;;
20908;SDS011;10614;53.198;6.570;2022-12-10T05:00:11;32.47;;;12.38;;
20908;SDS011;10614;53.198;6.570;2022-12-10T05:02:13;37.95;;;12.85;;
20908;SDS011;10614;53.198;6.570;2022-12-10T05:04:16;29.30;;;11.68;;
20908;SDS011;10614;53.198;6.570;2022-12-10T05:06:19;30.42;;;13.43;;
20908;SDS011;10614;53.198;6.570;2022-12-10T05:08:21;32.17;;;13.93;;
20908;SDS011;10614;53.198;6.570;2022-12-10T05:10:23;30.58;;;12.52;;
20908;SDS011;10614;53.198;6.570;2022-12-10T05:12:25;31.63;;;12.35;;
20908;SDS011;10614;53.198;6.570;2022-12-10T05:14:28;37.35;;;13.80;;
20908;SDS011;10614;53.198;6.570;2022-12-10T05:16:30;39.47;;;15.25;;
20908;SDS011;10614;53.198;6.570;2022-12-10T05:18:33;35.25;;;14.52;;
20908;SDS011;10614;53.198;6.570;2022-12-10T05:20:35;41.30;;;14.82;;
20908;SDS011;10614;53.198;6.570;2022-12-10T05:22:37;34.00;;;13.82;;
20908;SDS011;10614;53.198;6.570;2022-12-10T05:24:56;42.40;;;14.73;;
20908;SDS011;10614;53.198;6.570;2022-12-10T05:26:57;44.30;;;15.65;;
20908;SDS011;10614;53.198;6.570;2022-12-10T05:29:00;36.85;;;15.25;;
20908;SDS011;10614;53.198;6.570;2022-12-10T05:31:02;45.70;;;15.05;;
20908;SDS011;10614;53.198;6.570;2022-12-10T05:33:04;45.58;;;17.58;;
20908;SDS011;10614;53.198;6.570;2022-12-10T05:35:06;46.92;;;16.38;;
20908;SDS011;10614;53.198;6.570;2022-12-10T05:37:08;42.22;;;16.67;;
20908;SDS011;10614;53.198;6.570;2022-12-10T05:39:10;43.85;;;14.48;;
20908;SDS011;10614;53.198;6.570;2022-12-10T05:41:12;44.47;;;14.60;;
20908;SDS011;10614;53.198;6.570;2022-12-10T05:43:15;39.75;;;13.25;;
20908;SDS011;10614;53.198;6.570;2022-12-10T05:45:18;43.08;;;14.25;;
20908;SDS011;10614;53.198;6.570;2022-12-10T05:47:20;33.35;;;13.52;;
20908;SDS011;10614;53.198;6.570;2022-12-10T05:49:21;40.50;;;13.68;;
20908;SDS011;10614;53.198;6.570;2022-12-10T05:51:24;32.85;;;12.95;;
20908;SDS011;10614;53.198;6.570;2022-12-10T05:53:27;32.47;;;11.57;;
20908;SDS011;10614;53.198;6.570;2022-12-10T05:55:29;43.83;;;14.75;;
20908;SDS011;10614;53.198;6.570;2022-12-10T05:57:32;41.33;;;14.70;;
20908;SDS011;10614;53.198;6.570;2022-12-10T05:59:34;44.35;;;15.75;;
20908;SDS011;10614;53.198;6.570;2022-12-10T06:01:37;37.97;;;14.18;;
20908;SDS011;10614;53.198;6.570;2022-12-10T06:03:39;35.67;;;13.05;;
20908;SDS011;10614;53.198;6.570;2022-12-10T06:05:41;42.90;;;15.68;;
20908;SDS011;10614;53.198;6.570;2022-12-10T06:07:42;43.42;;;15.75;;
20908;SDS011;10614;53.198;6.570;2022-12-10T06:09:44;42.95;;;14.98;;
20908;SDS011;10614;53.198;6.570;2022-12-10T06:11:46;37.65;;;13.48;;
20908;SDS011;10614;53.198;6.570;2022-12-10T06:13:47;36.60;;;14.32;;
20908;SDS011;10614;53.198;6.570;2022-12-10T06:15:49;41.13;;;15.77;;
20908;SDS011;10614;53.198;6.570;2022-12-10T06:17:52;34.42;;;13.55;;
20908;SDS011;10614;53.198;6.570;2022-12-10T06:19:55;37.30;;;13.33;;
20908;SDS011;10614;53.198;6.570;2022-12-10T06:21:57;38.65;;;13.70;;
20908;SDS011;10614;53.198;6.570;2022-12-10T06:23:59;36.20;;;13.40;;
20908;SDS011;10614;53.198;6.570;2022-12-10T06:26:02;45.13;;;14.45;;
20908;SDS011;10614;53.198;6.570;2022-12-10T06:28:04;35.30;;;11.18;;
20908;SDS011;10614;53.198;6.570;2022-12-10T06:30:07;35.08;;;12.98;;
20908;SDS011;10614;53.198;6.570;2022-12-10T06:32:09;35.28;;;13.13;;
20908;SDS011;10614;53.198;6.570;2022-12-10T06:34:12;40.85;;;13.23;;
20908;SDS011;10614;53.198;6.570;2022-12-10T06:36:15;35.95;;;12.68;;
20908;SDS011;10614;53.198;6.570;2022-12-10T06:38:17;33.05;;;12.30;;
20908;SDS011;10614;53.198;6.570;2022-12-10T06:40:19;33.15;;;12.35;;
20908;SDS011;10614;53.198;6.570;2022-12-10T06:42:20;44.72;;;14.00;;
20908;SDS011;10614;53.198;6.570;2022-12-10T06:44:22;33.63;;;12.65;;
20908;SDS011;10614;53.198;6.570;2022-12-10T06:46:24;31.98;;;12.43;;
20908;SDS011;10614;53.198;6.570;2022-12-10T06:48:27;41.20;;;15.30;;
20908;SDS011;10614;53.198;6.570;2022-12-10T06:50:30;34.25;;;11.82;;
20908;SDS011;10614;53.198;6.570;2022-12-10T06:52:32;36.40;;;12.70;;
20908;SDS011;10614;53.198;6.570;2022-12-10T06:54:33;36.13;;;13.13;;
20908;SDS011;10614;53.198;6.570;2022-12-10T06:56:35;32.63;;;12.43;;
20908;SDS011;10614;53.198;6.570;2022-12-10T06:58:37;31.27;;;13.00;;
20908;SDS011;10614;53.198;6.570;2022-12-10T07:00:40;32.45;;;12.05;;
20908;SDS011;10614;53.198;6.570;2022-12-10T07:02:42;35.72;;;12.63;;
20908;SDS011;10614;53.198;6.570;2022-12-10T07:04:44;34.85;;;13.18;;
20908;SDS011;10614;53.198;6.570;2022-12-10T07:06:47;33.97;;;12.52;;
20908;SDS011;10614;53.198;6.570;2022-12-10T07:08:48;39.58;;;13.75;;
20908;SDS011;10614;53.198;6.570;2022-12-10T07:10:51;34.03;;;13.15;;
20908;SDS011;10614;53.198;6.570;2022-12-10T07:12:52;35.67;;;12.98;;
20908;SDS011;10614;53.198;6.570;2022-12-10T07:14:54;47.40;;;13.73;;
20908;SDS011;10614;53.198;6.570;2022-12-10T07:16:56;38.50;;;12.55;;
20908;SDS011;10614;53.198;6.570;2022-12-10T07:18:58;31.58;;;12.32;;
20908;SDS011;10614;53.198;6.570;2022-12-10T07:21:01;33.28;;;12.40;;
20908;SDS011;10614;53.198;6.570;2022-12-10T07:23:04;33.33;;;12.82;;
20908;SDS011;10614;53.198;6.570;2022-12-10T07:25:07;35.47;;;13.13;;
20908;SDS011;10614;53.198;6.570;2022-12-10T07:27:09;37.65;;;13.60;;
20908;SDS011;10614;53.198;6.570;2022-12-10T07:29:12;30.60;;;12.20;;
20908;SDS011;10614;53.198;6.570;2022-12-10T07:31:15;31.55;;;12.70;;
20908;SDS011;10614;53.198;6.570;2022-12-10T07:33:17;31.15;;;11.38;;
20908;SDS011;10614;53.198;6.570;2022-12-10T07:35:19;34.53;;;12.18;;
20908;SDS011;10614;53.198;6.570;2022-12-10T07:37:20;33.75;;;12.05;;
20908;SDS011;10614;53.198;6.570;2022-12-10T07:39:23;32.70;;;12.70;;
20908;SDS011;10614;53.198;6.570;2022-12-10T07:41:25;26.65;;;11.45;;
20908;SDS011;10614;53.198;6.570;2022-12-10T07:43:27;39.97;;;15.88;;
20908;SDS011;10614;53.198;6.570;2022-12-10T07:45:29;35.28;;;12.77;;
20908;SDS011;10614;53.198;6.570;2022-12-10T07:47:31;33.88;;;12.10;;
20908;SDS011;10614;53.198;6.570;2022-12-10T07:49:36;32.75;;;13.00;;
20908;SDS011;10614;53.198;6.570;2022-12-10T07:51:38;32.40;;;12.50;;
20908;SDS011;10614;53.198;6.570;2022-12-10T07:53:39;34.60;;;13.70;;
20908;SDS011;10614;53.198;6.570;2022-12-10T07:55:42;35.95;;;13.13;;
20908;SDS011;10614;53.198;6.570;2022-12-10T07:57:44;37.40;;;13.88;;
20908;SDS011;10614;53.198;6.570;2022-12-10T07:59:46;35.28;;;11.77;;
20908;SDS011;10614;53.198;6.570;2022-12-10T08:01:48;30.42;;;11.52;;
20908;SDS011;10614;53.198;6.570;2022-12-10T08:03:50;38.03;;;12.75;;
20908;SDS011;10614;53.198;6.570;2022-12-10T08:06:00;35.97;;;12.52;;
20908;SDS011;10614;53.198;6.570;2022-12-10T08:08:02;39.00;;;13.27;;
20908;SDS011;10614;53.198;6.570;2022-12-10T08:12:10;29.38;;;11.40;;
20908;SDS011;10614;53.198;6.570;2022-12-10T08:14:12;36.88;;;11.93;;
20908;SDS011;10614;53.198;6.570;2022-12-10T08:16:14;34.60;;;12.75;;
20908;SDS011;10614;53.198;6.570;2022-12-10T08:18:17;39.22;;;13.65;;
20908;SDS011;10614;53.198;6.570;2022-12-10T08:20:19;39.53;;;14.00;;
20908;SDS011;10614;53.198;6.570;2022-12-10T08:22:21;35.20;;;14.50;;
20908;SDS011;10614;53.198;6.570;2022-12-10T08:24:22;38.25;;;12.80;;
20908;SDS011;10614;53.198;6.570;2022-12-10T08:26:24;40.28;;;14.45;;
20908;SDS011;10614;53.198;6.570;2022-12-10T08:28:28;32.20;;;12.27;;
20908;SDS011;10614;53.198;6.570;2022-12-10T08:30:30;37.25;;;13.95;;
20908;SDS011;10614;53.198;6.570;2022-12-10T08:32:32;38.55;;;13.18;;
20908;SDS011;10614;53.198;6.570;2022-12-10T08:34:33;31.60;;;11.50;;
20908;SDS011;10614;53.198;6.570;2022-12-10T08:36:35;36.25;;;12.85;;
20908;SDS011;10614;53.198;6.570;2022-12-10T08:38:37;38.05;;;13.63;;
20908;SDS011;10614;53.198;6.570;2022-12-10T08:40:39;35.15;;;11.95;;
20908;SDS011;10614;53.198;6.570;2022-12-10T08:42:41;36.15;;;12.93;;
20908;SDS011;10614;53.198;6.570;2022-12-10T08:44:44;36.28;;;12.65;;
20908;SDS011;10614;53.198;6.570;2022-12-10T08:46:46;36.22;;;13.20;;
20908;SDS011;10614;53.198;6.570;2022-12-10T08:48:48;34.50;;;12.38;;
20908;SDS011;10614;53.198;6.570;2022-12-10T08:50:50;33.30;;;11.93;;
20908;SDS011;10614;53.198;6.570;2022-12-10T08:52:51;35.55;;;11.88;;
20908;SDS011;10614;53.198;6.570;2022-12-10T08:54:53;32.90;;;12.07;;
20908;SDS011;10614;53.198;6.570;2022-12-10T08:56:55;34.53;;;12.93;;
20908;SDS011;10614;53.198;6.570;2022-12-10T08:58:56;30.52;;;11.18;;
20908;SDS011;10614;53.198;6.570;2022-12-10T09:00:59;34.28;;;12.52;;
20908;SDS011;10614;53.198;6.570;2022-12-10T09:03:06;32.22;;;10.65;;
20908;SDS011;10614;53.198;6.570;2022-12-10T09:05:08;32.97;;;11.55;;
20908;SDS011;10614;53.198;6.570;2022-12-10T09:07:10;40.22;;;13.23;;
20908;SDS011;10614;53.198;6.570;2022-12-10T09:09:12;35.03;;;12.02;;
20908;SDS011;10614;53.198;6.570;2022-12-10T09:11:14;36.13;;;12.45;;
20908;SDS011;10614;53.198;6.570;2022-12-10T09:15:20;33.08;;;12.40;;
20908;SDS011;10614;53.198;6.570;2022-12-10T09:17:22;30.02;;;12.27;;
20908;SDS011;10614;53.198;6.570;2022-12-10T09:19:24;29.88;;;10.35;;
20908;SDS011;10614;53.198;6.570;2022-12-10T09:21:26;30.50;;;11.77;;
20908;SDS011;10614;53.198;6.570;2022-12-10T09:23:28;30.25;;;10.15;;
20908;SDS011;10614;53.198;6.570;2022-12-10T09:25:30;32.63;;;11.35;;
20908;SDS011;10614;53.198;6.570;2022-12-10T09:27:32;30.17;;;10.73;;
20908;SDS011;10614;53.198;6.570;2022-12-10T09:29:34;28.02;;;9.70;;
20908;SDS011;10614;53.198;6.570;2022-12-10T09:31:36;31.48;;;11.57;;
20908;SDS011;10614;53.198;6.570;2022-12-10T09:33:39;27.95;;;9.15;;
20908;SDS011;10614;53.198;6.570;2022-12-10T09:35:41;23.88;;;9.00;;
20908;SDS011;10614;53.198;6.570;2022-12-10T09:37:43;28.83;;;11.07;;
20908;SDS011;10614;53.198;6.570;2022-12-10T09:39:44;25.33;;;9.65;;
20908;SDS011;10614;53.198;6.570;2022-12-10T09:44:21;25.05;;;9.90;;
20908;SDS011;10614;53.198;6.570;2022-12-10T09:46:31;30.02;;;10.00;;
20908;SDS011;10614;53.198;6.570;2022-12-10T09:48:50;34.35;;;11.40;;
20908;SDS011;10614;53.198;6.570;2022-12-10T09:51:02;29.88;;;11.02;;
20908;SDS011;10614;53.198;6.570;2022-12-10T09:53:09;32.20;;;12.23;;
20908;SDS011;10614;53.198;6.570;2022-12-10T09:55:17;27.17;;;9.98;;
20908;SDS011;10614;53.198;6.570;2022-12-10T09:57:24;38.63;;;12.57;;
20908;SDS011;10614;53.198;6.570;2022-12-10T09:59:31;33.22;;;11.07;;
20908;SDS011;10614;53.198;6.570;2022-12-10T10:01:40;34.05;;;11.20;;
20908;SDS011;10614;53.198;6.570;2022-12-10T10:03:43;28.40;;;11.02;;
20908;SDS011;10614;53.198;6.570;2022-12-10T10:05:47;30.13;;;10.98;;
20908;SDS011;10614;53.198;6.570;2022-12-10T10:07:52;27.40;;;9.95;;
20908;SDS011;10614;53.198;6.570;2022-12-10T10:09:57;26.83;;;10.48;;
20908;SDS011;10614;53.198;6.570;2022-12-10T10:12:02;36.70;;;11.95;;
20908;SDS011;10614;53.198;6.570;2022-12-10T10:14:05;32.42;;;12.18;;
20908;SDS011;10614;53.198;6.570;2022-12-10T10:16:16;34.45;;;12.10;;
20908;SDS011;10614;53.198;6.570;2022-12-10T10:18:29;33.97;;;12.07;;
20908;SDS011;10614;53.198;6.570;2022-12-10T10:20:36;30.38;;;11.95;;
20908;SDS011;10614;53.198;6.570;2022-12-10T10:22:39;31.73;;;12.18;;
20908;SDS011;10614;53.198;6.570;2022-12-10T10:24:42;32.28;;;11.65;;
20908;SDS011;10614;53.198;6.570;2022-12-10T10:26:46;32.67;;;11.75;;
20908;SDS011;10614;53.198;6.570;2022-12-10T10:28:50;32.95;;;11.20;;
20908;SDS011;10614;53.198;6.570;2022-12-10T10:30:57;29.83;;;10.25;;
20908;SDS011;10614;53.198;6.570;2022-12-10T10:33:03;34.05;;;11.10;;
20908;SDS011;10614;53.198;6.570;2022-12-10T10:35:18;30.35;;;10.73;;
20908;SDS011;10614;53.198;6.570;2022-12-10T10:37:23;28.33;;;10.65;;
20908;SDS011;10614;53.198;6.570;2022-12-10T10:39:30;30.40;;;10.32;;
20908;SDS011;10614;53.198;6.570;2022-12-10T10:41:35;26.13;;;10.27;;
20908;SDS011;10614;53.198;6.570;2022-12-10T10:45:43;25.73;;;9.88;;
20908;SDS011;10614;53.198;6.570;2022-12-10T10:47:50;31.25;;;10.68;;
20908;SDS011;10614;53.198;6.570;2022-12-10T10:50:05;26.63;;;10.27;;
20908;SDS011;10614;53.198;6.570;2022-12-10T10:52:25;28.95;;;9.35;;
20908;SDS011;10614;53.198;6.570;2022-12-10T10:54:37;25.92;;;9.73;;
20908;SDS011;10614;53.198;6.570;2022-12-10T10:56:40;25.20;;;10.25;;
20908;SDS011;10614;53.198;6.570;2022-12-10T11:01:07;24.98;;;9.18;;
20908;SDS011;10614;53.198;6.570;2022-12-10T11:03:10;22.13;;;9.48;;
20908;SDS011;10614;53.198;6.570;2022-12-10T11:05:15;28.67;;;10.80;;
20908;SDS011;10614;53.198;6.570;2022-12-10T11:07:23;25.50;;;9.40;;
20908;SDS011;10614;53.198;6.570;2022-12-10T11:09:28;22.35;;;9.35;;
20908;SDS011;10614;53.198;6.570;2022-12-10T11:11:34;21.13;;;8.55;;
20908;SDS011;10614;53.198;6.570;2022-12-10T11:13:38;24.70;;;9.88;;
20908;SDS011;10614;53.198;6.570;2022-12-10T11:15:40;24.42;;;8.57;;
20908;SDS011;10614;53.198;6.570;2022-12-10T11:17:46;22.15;;;9.25;;
20908;SDS011;10614;53.198;6.570;2022-12-10T11:19:59;25.15;;;9.65;;
20908;SDS011;10614;53.198;6.570;2022-12-10T11:22:14;20.58;;;8.95;;
20908;SDS011;10614;53.198;6.570;2022-12-10T11:24:18;20.92;;;7.53;;
20908;SDS011;10614;53.198;6.570;2022-12-10T11:26:24;19.50;;;7.45;;
20908;SDS011;10614;53.198;6.570;2022-12-10T11:28:40;24.00;;;8.77;;
20908;SDS011;10614;53.198;6.570;2022-12-10T11:30:53;25.42;;;9.75;;
20908;SDS011;10614;53.198;6.570;2022-12-10T11:33:05;21.70;;;9.00;;
20908;SDS011;10614;53.198;6.570;2022-12-10T11:35:20;25.55;;;8.70;;
20908;SDS011;10614;53.198;6.570;2022-12-10T11:37:31;20.58;;;8.57;;
20908;SDS011;10614;53.198;6.570;2022-12-10T11:42:19;26.77;;;9.25;;
20908;SDS011;10614;53.198;6.570;2022-12-10T11:44:29;27.05;;;10.13;;
20908;SDS011;10614;53.198;6.570;2022-12-10T11:46:55;22.25;;;8.65;;
20908;SDS011;10614;53.198;6.570;2022-12-10T11:49:13;23.15;;;8.45;;
20908;SDS011;10614;53.198;6.570;2022-12-10T11:51:24;19.67;;;8.75;;
20908;SDS011;10614;53.198;6.570;2022-12-10T11:53:38;25.52;;;10.43;;
20908;SDS011;10614;53.198;6.570;2022-12-10T11:55:53;23.63;;;8.80;;
20908;SDS011;10614;53.198;6.570;2022-12-10T11:58:08;27.77;;;10.93;;
20908;SDS011;10614;53.198;6.570;2022-12-10T12:00:20;28.45;;;10.48;;
20908;SDS011;10614;53.198;6.570;2022-12-10T12:02:30;23.15;;;8.20;;
20908;SDS011;10614;53.198;6.570;2022-12-10T12:04:48;25.25;;;9.00;;
20908;SDS011;10614;53.198;6.570;2022-12-10T12:07:08;22.13;;;8.75;;
20908;SDS011;10614;53.198;6.570;2022-12-10T12:09:34;25.90;;;9.75;;
20908;SDS011;10614;53.198;6.570;2022-12-10T12:11:53;20.42;;;7.88;;
20908;SDS011;10614;53.198;6.570;2022-12-10T12:14:06;26.05;;;9.38;;
20908;SDS011;10614;53.198;6.570;2022-12-10T12:16:16;20.65;;;8.02;;
20908;SDS011;10614;53.198;6.570;2022-12-10T12:18:22;24.55;;;9.18;;
20908;SDS011;10614;53.198;6.570;2022-12-10T12:20:31;23.63;;;9.32;;
20908;SDS011;10614;53.198;6.570;2022-12-10T12:22:39;30.70;;;12.32;;
20908;SDS011;10614;53.198;6.570;2022-12-10T12:24:46;21.88;;;8.88;;
20908;SDS011;10614;53.198;6.570;2022-12-10T12:26:50;27.02;;;10.82;;
20908;SDS011;10614;53.198;6.570;2022-12-10T12:28:56;23.13;;;9.43;;